createdAt,value
2022-09-23T00:00:41.307Z,97.83
2022-09-23T00:01:41.340Z,98.55
2022-09-23T00:02:41.438Z,98.93
2022-09-23T00:03:41.265Z,99.19
2022-09-23T00:04:41.253Z,99.50
2022-09-23T00:05:41.239Z,99.66
2022-09-23T00:07:41.213Z,99.29
2022-09-23T00:08:41.199Z,99.19
2022-09-23T00:09:41.186Z,98.93
2022-09-23T00:10:41.174Z,98.72
2022-09-23T00:11:41.159Z,98.62
2022-09-23T00:12:41.147Z,98.66
2022-09-23T00:13:41.134Z,98.15
2022-09-23T00:14:41.145Z,97.88
2022-09-23T00:15:41.112Z,97.67
2022-09-23T00:16:41.187Z,97.77
2022-09-23T00:18:41.068Z,99.28
2022-09-23T00:19:41.057Z,99.65
2022-09-23T00:20:41.042Z,99.99
2022-09-23T00:21:41.028Z,99.99
2022-09-23T00:22:41.018Z,99.99
2022-09-23T00:23:41.005Z,99.99
2022-09-23T00:24:40.997Z,99.99
2022-09-23T00:25:40.978Z,99.99
2022-09-23T00:26:40.967Z,99.99
2022-09-23T00:27:40.947Z,99.99
2022-09-23T00:29:40.921Z,99.56
2022-09-23T00:30:40.975Z,99.19
2022-09-23T00:31:40.894Z,98.62
2022-09-23T00:32:40.883Z,98.51
2022-09-23T00:33:40.867Z,98.25
2022-09-23T00:34:40.863Z,97.98
2022-09-23T00:35:40.845Z,97.88
2022-09-23T00:36:40.829Z,97.61
2022-09-23T00:37:40.813Z,97.51
2022-09-23T00:38:40.802Z,97.45
2022-09-23T00:40:40.832Z,97.76
2022-09-23T00:41:40.759Z,98.33
2022-09-23T00:42:40.749Z,98.85
2022-09-23T00:43:40.732Z,99.02
2022-09-23T00:44:40.721Z,99.33
2022-09-23T00:45:40.749Z,99.02
2022-09-23T00:46:40.719Z,98.91
2022-09-23T00:47:40.680Z,99.12
2022-09-23T00:48:40.667Z,99.33
2022-09-23T00:49:40.654Z,99.33
2022-09-23T00:51:40.629Z,99.43
2022-09-23T00:52:40.615Z,99.53
2022-09-23T00:53:40.600Z,99.63
2022-09-23T00:54:40.589Z,99.74
2022-09-23T00:55:40.576Z,99.74
2022-09-23T00:56:40.562Z,99.63
2022-09-23T00:57:40.547Z,99.53
2022-09-23T00:58:40.537Z,99.43
2022-09-23T00:59:40.520Z,99.33
2022-09-23T01:00:40.508Z,99.27
2022-09-23T01:02:40.574Z,98.75
2022-09-23T01:03:40.468Z,98.59
2022-09-23T01:04:40.456Z,98.38
2022-09-23T01:05:40.441Z,98.28
2022-09-23T01:06:40.429Z,98.38
2022-09-23T01:07:40.414Z,98.69
2022-09-23T01:08:40.403Z,98.80
2022-09-23T01:09:40.387Z,98.80
2022-09-23T01:10:40.376Z,99.01
2022-09-23T01:11:40.361Z,99.11
2022-09-23T01:13:40.334Z,99.99
2022-09-23T01:14:40.322Z,99.99
2022-09-23T01:15:40.309Z,99.99
2022-09-23T01:16:40.357Z,99.99
2022-09-23T01:17:40.282Z,99.99
2022-09-23T01:18:40.292Z,99.99
2022-09-23T01:19:40.254Z,99.99
2022-09-23T01:20:40.243Z,99.99
2022-09-23T01:21:40.229Z,99.99
2022-09-23T01:22:40.215Z,99.99
2022-09-23T01:24:40.191Z,99.70
2022-09-23T01:25:40.175Z,99.43
2022-09-23T01:26:40.164Z,98.96
2022-09-23T01:27:40.148Z,98.59
2022-09-23T01:28:40.137Z,98.07
2022-09-23T01:29:40.122Z,97.97
2022-09-23T01:30:40.215Z,97.76
2022-09-23T01:31:40.096Z,97.39
2022-09-23T01:32:40.086Z,97.29
2022-09-23T01:33:40.072Z,97.60
2022-09-23T01:35:40.046Z,97.49
2022-09-23T01:36:40.036Z,97.39
2022-09-23T01:37:40.021Z,97.91
2022-09-23T01:38:40.011Z,98.63
2022-09-23T01:39:39.999Z,99.21
2022-09-23T01:40:40.065Z,99.48
2022-09-23T01:41:39.972Z,99.58
2022-09-23T01:42:39.961Z,99.37
2022-09-23T01:43:39.948Z,99.27
2022-09-23T01:44:39.935Z,99.06
2022-09-23T01:46:39.910Z,98.28
2022-09-23T01:47:39.896Z,98.43
2022-09-23T01:48:39.944Z,98.32
2022-09-23T01:49:39.875Z,98.22
2022-09-23T01:50:39.881Z,98.43
2022-09-23T01:51:39.844Z,98.53
2022-09-23T01:52:39.833Z,98.53
2022-09-23T01:53:39.821Z,98.32
2022-09-23T01:54:39.809Z,98.12
2022-09-23T01:55:39.803Z,98.37
2022-09-23T01:57:39.770Z,98.74
2022-09-23T01:58:39.761Z,98.74
2022-09-23T01:59:39.745Z,98.79
2022-09-23T02:00:39.734Z,98.58
2022-09-23T02:01:39.763Z,98.37
2022-09-23T02:02:39.731Z,98.52
2022-09-23T02:03:39.699Z,98.89
2022-09-23T02:04:39.709Z,99.57
2022-09-23T02:05:39.675Z,99.99
2022-09-23T02:06:39.684Z,99.99
2022-09-23T02:08:39.640Z,99.79
2022-09-23T02:09:39.619Z,99.62
2022-09-23T02:10:39.609Z,99.52
2022-09-23T02:11:39.593Z,99.26
2022-09-23T02:12:39.581Z,99.36
2022-09-23T02:13:39.566Z,99.42
2022-09-23T02:14:39.554Z,99.52
2022-09-23T02:15:39.541Z,99.83
2022-09-23T02:16:39.642Z,99.99
2022-09-23T02:17:39.519Z,99.99
2022-09-23T02:19:39.489Z,99.99
2022-09-23T02:20:39.477Z,99.73
2022-09-23T02:21:39.461Z,99.62
2022-09-23T02:22:39.474Z,99.36
2022-09-23T02:23:39.436Z,99.15
2022-09-23T02:24:39.423Z,99.05
2022-09-23T02:25:39.409Z,98.99
2022-09-23T02:26:39.398Z,98.58
2022-09-23T02:27:39.383Z,97.85
2022-09-23T02:28:39.372Z,98.06
2022-09-23T02:30:39.347Z,97.27
2022-09-23T02:31:39.353Z,97.17
2022-09-23T02:32:39.322Z,97.22
2022-09-23T02:33:39.305Z,97.32
2022-09-23T02:34:39.295Z,97.32
2022-09-23T02:35:39.286Z,97.63
2022-09-23T02:36:39.268Z,98.00
2022-09-23T02:37:39.251Z,98.83
2022-09-23T02:38:39.276Z,99.20
2022-09-23T02:39:39.233Z,99.61
2022-09-23T02:41:39.204Z,99.57
2022-09-23T02:42:39.212Z,99.05
2022-09-23T02:43:39.178Z,99.10
2022-09-23T02:44:39.166Z,99.10
2022-09-23T02:45:39.291Z,99.10
2022-09-23T02:46:39.145Z,99.10
2022-09-23T02:47:39.125Z,99.10
2022-09-23T02:48:39.115Z,98.79
2022-09-23T02:49:39.101Z,98.68
2022-09-23T02:50:39.089Z,98.68
2022-09-23T02:52:39.069Z,98.32
2022-09-23T02:53:39.053Z,98.63
2022-09-23T02:54:39.066Z,98.49
2022-09-23T02:55:39.030Z,98.49
2022-09-23T02:56:39.019Z,98.38
2022-09-23T02:57:39.010Z,98.07
2022-09-23T02:58:38.994Z,97.86
2022-09-23T02:59:38.980Z,97.66
2022-09-23T03:00:38.969Z,97.86
2022-09-23T03:01:38.999Z,97.66
2022-09-23T03:03:38.931Z,97.97
2022-09-23T03:04:38.921Z,98.18
2022-09-23T03:05:38.908Z,98.18
2022-09-23T03:06:38.896Z,98.28
2022-09-23T03:07:38.882Z,98.59
2022-09-23T03:08:38.871Z,98.75
2022-09-23T03:09:38.862Z,98.54
2022-09-23T03:10:38.873Z,98.23
2022-09-23T03:11:38.834Z,98.13
2022-09-23T03:12:38.821Z,98.03
2022-09-23T03:14:38.797Z,97.86
2022-09-23T03:15:38.782Z,97.86
2022-09-23T03:16:38.867Z,98.07
2022-09-23T03:17:38.758Z,98.18
2022-09-23T03:18:38.747Z,98.18
2022-09-23T03:19:38.738Z,98.32
2022-09-23T03:20:38.723Z,98.12
2022-09-23T03:21:38.719Z,98.01
2022-09-23T03:22:38.696Z,97.91
2022-09-23T03:23:38.685Z,97.70
2022-09-23T03:25:38.662Z,97.29
2022-09-23T03:26:38.673Z,97.02
2022-09-23T03:27:38.638Z,97.02
2022-09-23T03:28:38.623Z,96.82
2022-09-23T03:29:38.611Z,96.75
2022-09-23T03:30:38.596Z,96.96
2022-09-23T03:31:38.702Z,96.96
2022-09-23T03:32:38.572Z,97.17
2022-09-23T03:33:38.564Z,97.58
2022-09-23T03:34:38.551Z,98.00
2022-09-23T03:36:38.522Z,98.10
2022-09-23T03:37:38.510Z,98.10
2022-09-23T03:38:38.497Z,98.00
2022-09-23T03:39:38.487Z,97.90
2022-09-23T03:40:38.534Z,97.90
2022-09-23T03:41:38.461Z,98.21
2022-09-23T03:42:38.472Z,98.52
2022-09-23T03:43:39.061Z,98.62
2022-09-23T03:44:38.424Z,98.73
2022-09-23T03:45:38.624Z,98.62
2022-09-23T03:47:38.386Z,98.31
2022-09-23T03:48:38.373Z,98.15
2022-09-23T03:49:38.362Z,98.52
2022-09-23T03:50:38.350Z,99.04
2022-09-23T03:51:41.548Z,99.20
2022-09-23T03:52:38.324Z,99.41
2022-09-23T03:53:38.311Z,99.57
2022-09-23T03:54:38.300Z,99.57
2022-09-23T03:55:38.287Z,99.88
2022-09-23T03:56:38.273Z,99.73
2022-09-23T03:58:38.270Z,99.93
2022-09-23T03:59:38.236Z,99.99
2022-09-23T04:00:38.234Z,99.99
2022-09-23T04:01:38.271Z,99.99
2022-09-23T04:02:38.198Z,99.99
2022-09-23T04:03:38.187Z,99.99
2022-09-23T04:04:38.169Z,99.99
2022-09-23T04:05:38.159Z,99.99
2022-09-23T04:06:38.145Z,99.99
2022-09-23T04:07:38.146Z,99.99
2022-09-23T04:09:38.107Z,99.99
2022-09-23T04:10:38.092Z,99.90
2022-09-23T04:11:38.079Z,99.99
2022-09-23T04:12:38.064Z,99.99
2022-09-23T04:13:38.053Z,99.99
2022-09-23T04:14:38.064Z,99.99
2022-09-23T04:15:38.026Z,99.99
2022-09-23T04:16:38.093Z,99.99
2022-09-23T04:17:37.999Z,99.96
2022-09-23T04:18:37.985Z,99.99
2022-09-23T04:20:38.008Z,99.38
2022-09-23T04:21:37.948Z,99.59
2022-09-23T04:22:37.932Z,99.80
2022-09-23T04:23:37.919Z,99.90
2022-09-23T04:24:37.905Z,99.99
2022-09-23T04:25:37.894Z,99.70
2022-09-23T04:26:37.880Z,99.59
2022-09-23T04:27:38.186Z,99.90
2022-09-23T04:28:37.856Z,99.80
2022-09-23T04:29:37.842Z,99.59
2022-09-23T04:31:37.862Z,99.90
2022-09-23T04:32:37.801Z,99.99
2022-09-23T04:33:37.789Z,99.90
2022-09-23T04:34:37.775Z,99.99
2022-09-23T04:35:40.193Z,99.99
2022-09-23T04:36:37.751Z,99.99
2022-09-23T04:37:37.738Z,99.99
2022-09-23T04:38:37.722Z,99.90
2022-09-23T04:39:37.710Z,99.80
2022-09-23T04:40:37.798Z,99.59
2022-09-23T04:42:37.667Z,99.90
2022-09-23T04:43:37.658Z,99.90
2022-09-23T04:44:37.640Z,99.70
2022-09-23T04:45:37.630Z,99.38
2022-09-23T04:46:37.694Z,99.28
2022-09-23T04:47:37.602Z,99.59
2022-09-23T04:48:37.588Z,99.28
2022-09-23T04:49:37.576Z,99.38
2022-09-23T04:50:37.561Z,99.59
2022-09-23T04:51:37.555Z,99.38
2022-09-23T04:53:37.524Z,99.02
2022-09-23T04:54:37.509Z,98.81
2022-09-23T04:55:37.497Z,99.12
2022-09-23T04:56:37.486Z,99.53
2022-09-23T04:57:37.470Z,99.74
2022-09-23T04:58:37.456Z,99.74
2022-09-23T04:59:37.446Z,99.70
2022-09-23T05:00:37.524Z,99.80
2022-09-23T05:01:37.570Z,99.70
2022-09-23T05:02:37.492Z,99.59
2022-09-23T05:04:37.376Z,99.18
2022-09-23T05:05:37.364Z,98.91
2022-09-23T05:06:37.354Z,98.60
2022-09-23T05:07:37.337Z,98.33
2022-09-23T05:08:37.325Z,98.33
2022-09-23T05:09:37.313Z,98.33
2022-09-23T05:10:37.297Z,98.23
2022-09-23T05:11:37.301Z,98.03
2022-09-23T05:12:37.283Z,97.97
2022-09-23T05:13:37.258Z,97.97
2022-09-23T05:15:37.241Z,97.76
2022-09-23T05:16:37.347Z,97.70
2022-09-23T05:17:37.268Z,97.70
2022-09-23T05:18:37.226Z,97.60
2022-09-23T05:19:37.183Z,97.60
2022-09-23T05:20:37.162Z,97.60
2022-09-23T05:21:37.151Z,97.49
2022-09-23T05:22:37.135Z,97.39
2022-09-23T05:23:37.124Z,96.88
2022-09-23T05:24:37.110Z,96.77
2022-09-23T05:26:37.084Z,97.19
2022-09-23T05:27:37.072Z,97.39
2022-09-23T05:28:37.057Z,97.66
2022-09-23T05:29:37.044Z,98.07
2022-09-23T05:30:37.034Z,98.23
2022-09-23T05:31:37.038Z,98.23
2022-09-23T05:32:37.005Z,98.03
2022-09-23T05:33:36.991Z,97.66
2022-09-23T05:34:37.001Z,97.45
2022-09-23T05:35:36.966Z,97.35
2022-09-23T05:37:36.938Z,97.86
2022-09-23T05:38:36.925Z,98.03
2022-09-23T05:39:36.912Z,97.72
2022-09-23T05:40:36.935Z,97.61
2022-09-23T05:41:36.887Z,97.41
2022-09-23T05:42:36.871Z,97.30
2022-09-23T05:43:36.859Z,97.20
2022-09-23T05:44:36.845Z,97.10
2022-09-23T05:45:36.833Z,96.89
2022-09-23T05:46:36.876Z,96.78
2022-09-23T05:48:36.791Z,96.58
2022-09-23T05:49:58.138Z,96.37
2022-09-23T05:50:36.790Z,96.37
2022-09-23T05:51:36.753Z,96.47
2022-09-23T05:52:36.743Z,95.95
2022-09-23T05:53:36.726Z,96.47
2022-09-23T05:54:36.711Z,98.19
2022-09-23T05:55:36.700Z,98.87
2022-09-23T05:56:36.687Z,99.18
2022-09-23T05:57:36.673Z,98.82
2022-09-23T05:59:36.648Z,98.98
2022-09-23T06:00:36.643Z,98.77
2022-09-23T06:01:36.804Z,98.57
2022-09-23T06:02:36.688Z,97.85
2022-09-23T06:03:36.602Z,98.01
2022-09-23T06:04:36.580Z,98.01
2022-09-23T06:05:36.567Z,97.80
2022-09-23T06:06:36.576Z,97.60
2022-09-23T06:07:36.541Z,97.34
2022-09-23T06:08:36.526Z,97.03
2022-09-23T06:10:36.501Z,96.36
2022-09-23T06:11:36.491Z,95.94
2022-09-23T06:12:36.475Z,95.84
2022-09-23T06:13:36.467Z,95.53
2022-09-23T06:14:36.452Z,95.63
2022-09-23T06:15:36.440Z,95.53
2022-09-23T06:16:36.494Z,95.32
2022-09-23T06:17:36.414Z,95.32
2022-09-23T06:18:36.400Z,95.38
2022-09-23T06:19:36.391Z,95.28
2022-09-23T06:21:36.373Z,95.17
2022-09-23T06:22:39.075Z,95.38
2022-09-23T06:23:39.898Z,95.38
2022-09-23T06:24:36.325Z,94.76
2022-09-23T06:25:36.313Z,95.48
2022-09-23T06:26:36.297Z,96.00
2022-09-23T06:27:36.287Z,95.85
2022-09-23T06:28:36.273Z,95.13
2022-09-23T06:29:36.262Z,95.65
2022-09-23T06:30:36.250Z,95.75
2022-09-23T06:32:36.223Z,94.57
2022-09-23T06:33:37.360Z,94.47
2022-09-23T06:34:48.041Z,94.73
2022-09-23T06:35:38.184Z,94.90
2022-09-23T06:36:43.317Z,94.70
2022-09-23T06:37:36.158Z,94.76
2022-09-23T06:38:36.167Z,95.13
2022-09-23T06:39:36.131Z,94.68
2022-09-23T06:40:36.143Z,94.01
2022-09-23T06:41:36.107Z,94.28
2022-09-23T06:43:36.081Z,92.12
2022-09-23T06:44:36.068Z,91.88
2022-09-23T06:45:36.058Z,91.52
2022-09-23T06:46:36.106Z,90.71
2022-09-23T06:47:36.031Z,90.30
2022-09-23T06:48:36.019Z,89.84
2022-09-23T06:49:36.008Z,89.39
2022-09-23T06:50:36.000Z,89.45
2022-09-23T06:51:35.981Z,87.92
2022-09-23T06:52:35.968Z,86.64
2022-09-23T06:54:36.013Z,87.34
2022-09-23T06:55:35.931Z,86.69
2022-09-23T06:56:39.019Z,84.81
2022-09-23T06:57:35.902Z,84.16
2022-09-23T06:58:35.890Z,83.03
2022-09-23T06:59:35.875Z,83.70
2022-09-23T07:00:35.862Z,84.32
2022-09-23T07:01:36.063Z,83.06
2022-09-23T07:02:36.012Z,82.75
2022-09-23T07:03:35.823Z,80.81
2022-09-23T07:05:35.800Z,82.06
2022-09-23T07:06:35.792Z,81.68
2022-09-23T07:07:35.772Z,76.65
2022-09-23T07:08:35.759Z,78.04
2022-09-23T07:09:35.746Z,78.11
2022-09-23T07:10:35.756Z,73.60
2022-09-23T07:11:35.720Z,75.25
2022-09-23T07:12:35.708Z,74.61
2022-09-23T07:13:35.695Z,73.56
2022-09-23T07:14:35.679Z,72.17
2022-09-23T07:16:35.653Z,72.07
2022-09-23T07:17:35.643Z,72.07
2022-09-23T07:18:36.909Z,71.46
2022-09-23T07:19:35.616Z,71.39
2022-09-23T07:20:35.602Z,70.65
2022-09-23T07:21:35.590Z,70.11
2022-09-23T07:22:35.576Z,68.46
2022-09-23T07:23:35.564Z,66.84
2022-09-23T07:24:35.549Z,64.34
2022-09-23T07:25:35.538Z,65.82
2022-09-23T07:27:35.514Z,65.27
2022-09-23T07:28:35.499Z,69.26
2022-09-23T07:29:47.182Z,67.43
2022-09-23T07:30:37.670Z,68.45
2022-09-23T07:31:39.828Z,69.00
2022-09-23T07:32:44.798Z,67.54
2022-09-23T07:33:35.497Z,65.38
2022-09-23T07:34:35.419Z,65.82
2022-09-23T07:35:35.408Z,67.85
2022-09-23T07:36:35.394Z,66.21
2022-09-23T07:38:35.370Z,61.57
2022-09-23T07:39:35.356Z,64.23
2022-09-23T07:40:35.416Z,63.26
2022-09-23T07:41:35.331Z,61.70
2022-09-23T07:42:35.356Z,60.33
2022-09-23T07:43:35.303Z,56.24
2022-09-23T07:44:35.292Z,58.16
2022-09-23T07:45:35.278Z,59.61
2022-09-23T07:46:35.345Z,59.25
2022-09-23T07:47:35.253Z,57.69
2022-09-23T07:49:35.228Z,52.71
2022-09-23T07:50:35.216Z,55.80
2022-09-23T07:51:36.639Z,56.07
2022-09-23T07:52:35.191Z,53.97
2022-09-23T07:53:35.175Z,55.07
2022-09-23T07:54:35.165Z,53.77
2022-09-23T07:55:35.149Z,54.65
2022-09-23T07:56:35.140Z,54.85
2022-09-23T07:57:35.126Z,55.07
2022-09-23T07:58:35.152Z,55.45
2022-09-23T08:00:35.090Z,53.82
2022-09-23T08:01:35.117Z,53.82
2022-09-23T08:02:35.110Z,54.19
2022-09-23T08:03:35.056Z,54.04
2022-09-23T08:04:35.040Z,49.48
2022-09-23T08:05:35.025Z,50.91
2022-09-23T08:06:35.016Z,49.28
2022-09-23T08:07:35.004Z,51.59
2022-09-23T08:08:34.993Z,47.68
2022-09-23T08:09:34.976Z,51.73
2022-09-23T08:11:34.952Z,51.19
2022-09-23T08:12:34.944Z,49.06
2022-09-23T08:13:34.926Z,48.61
2022-09-23T08:14:34.979Z,47.81
2022-09-23T08:15:35.069Z,49.16
2022-09-23T08:16:34.894Z,44.99
2022-09-23T08:17:34.878Z,46.03
2022-09-23T08:18:34.867Z,46.45
2022-09-23T08:19:34.853Z,49.18
2022-09-23T08:20:34.842Z,49.43
2022-09-23T08:22:34.818Z,51.48
2022-09-23T08:23:34.807Z,50.73
2022-09-23T08:24:34.792Z,51.46
2022-09-23T08:25:34.925Z,51.36
2022-09-23T08:26:34.769Z,53.49
2022-09-23T08:27:34.755Z,50.88
2022-09-23T08:28:34.746Z,53.42
2022-09-23T08:29:34.737Z,52.71
2022-09-23T08:30:34.744Z,51.91
2022-09-23T08:31:34.719Z,53.42
2022-09-23T08:33:34.681Z,51.83
2022-09-23T08:34:34.672Z,50.93
2022-09-23T08:35:34.656Z,51.23
2022-09-23T08:36:34.646Z,50.81
2022-09-23T08:37:34.630Z,51.11
2022-09-23T08:38:34.639Z,51.23
2022-09-23T08:39:34.606Z,50.83
2022-09-23T08:40:34.650Z,50.81
2022-09-23T08:41:34.588Z,51.23
2022-09-23T08:42:34.573Z,51.21
2022-09-23T08:44:34.545Z,49.56
2022-09-23T08:45:34.536Z,49.13
2022-09-23T08:46:34.605Z,48.80
2022-09-23T08:47:34.507Z,48.20
2022-09-23T08:48:34.498Z,47.68
2022-09-23T08:49:34.482Z,47.68
2022-09-23T08:50:34.471Z,47.03
2022-09-23T08:51:34.455Z,46.39
2022-09-23T08:52:34.447Z,45.47
2022-09-23T08:53:34.430Z,44.73
2022-09-23T08:55:34.409Z,44.42
2022-09-23T08:56:35.457Z,43.60
2022-09-23T08:57:34.383Z,43.46
2022-09-23T08:58:34.376Z,43.15
2022-09-23T08:59:34.358Z,42.81
2022-09-23T09:00:34.347Z,43.32
2022-09-23T09:01:34.432Z,46.03
2022-09-23T09:02:34.417Z,46.11
2022-09-23T09:03:34.307Z,46.11
2022-09-23T09:04:34.296Z,45.77
2022-09-23T09:06:41.915Z,43.48
2022-09-23T09:07:37.122Z,42.99
2022-09-23T09:08:34.247Z,42.95
2022-09-23T09:09:34.234Z,42.15
2022-09-23T09:10:34.224Z,42.85
2022-09-23T09:11:34.208Z,42.21
2022-09-23T09:12:34.198Z,41.29
2022-09-23T09:13:34.184Z,40.96
2022-09-23T09:14:34.175Z,40.16
2022-09-23T09:15:34.200Z,39.84
2022-09-23T09:17:35.117Z,39.01
2022-09-23T09:18:34.209Z,38.50
2022-09-23T09:19:34.109Z,39.36
2022-09-23T09:20:34.100Z,40.28
2022-09-23T09:21:34.086Z,40.10
2022-09-23T09:22:34.076Z,41.29
2022-09-23T09:23:34.061Z,41.07
2022-09-23T09:24:34.050Z,40.77
2022-09-23T09:25:34.398Z,40.55
2022-09-23T09:26:34.032Z,39.50
2022-09-23T09:28:34.003Z,38.04
2022-09-23T09:29:35.743Z,39.23
2022-09-23T09:30:33.979Z,39.33
2022-09-23T09:31:33.997Z,41.21
2022-09-23T09:32:33.958Z,40.79
2022-09-23T09:33:33.949Z,39.86
2022-09-23T09:34:33.956Z,39.34
2022-09-23T09:35:33.918Z,38.50
2022-09-23T09:36:33.909Z,37.68
2022-09-23T09:37:33.899Z,37.07
2022-09-23T09:39:33.874Z,37.29
2022-09-23T09:40:33.933Z,37.07
2022-09-23T09:41:33.851Z,36.14
2022-09-23T09:42:33.840Z,35.60
2022-09-23T09:43:33.827Z,34.79
2022-09-23T09:44:33.823Z,34.28
2022-09-23T09:45:33.801Z,33.98
2022-09-23T09:46:33.849Z,34.57
2022-09-23T09:47:33.777Z,34.62
2022-09-23T09:48:33.766Z,37.40
2022-09-23T09:50:33.878Z,38.97
2022-09-23T09:51:33.727Z,39.68
2022-09-23T09:52:33.717Z,40.58
2022-09-23T09:53:33.649Z,40.60
2022-09-23T09:54:33.640Z,40.69
2022-09-23T09:55:33.625Z,40.04
2022-09-23T09:56:33.669Z,38.59
2022-09-23T09:57:35.927Z,37.88
2022-09-23T09:58:33.590Z,37.88
2022-09-23T09:59:33.586Z,37.67
2022-09-23T10:01:33.596Z,35.69
2022-09-23T10:02:33.549Z,36.44
2022-09-23T10:03:33.531Z,36.42
2022-09-23T10:04:33.603Z,35.16
2022-09-23T10:05:33.506Z,35.61
2022-09-23T10:06:33.520Z,35.81
2022-09-23T10:07:33.483Z,35.99
2022-09-23T10:08:33.474Z,35.16
2022-09-23T10:09:33.460Z,34.49
2022-09-23T10:10:33.942Z,36.02
2022-09-23T10:12:33.426Z,38.51
2022-09-23T10:13:33.413Z,39.23
2022-09-23T10:14:33.415Z,40.06
2022-09-23T10:15:33.391Z,40.50
2022-09-23T10:16:33.454Z,41.85
2022-09-23T10:17:33.368Z,41.41
2022-09-23T10:18:33.358Z,40.04
2022-09-23T10:19:33.344Z,38.37
2022-09-23T10:20:33.333Z,38.61
2022-09-23T10:21:33.326Z,38.39
2022-09-23T10:23:33.310Z,41.03
2022-09-23T10:24:33.288Z,44.04
2022-09-23T10:25:33.277Z,47.40
2022-09-23T10:26:33.266Z,49.48
2022-09-23T10:27:33.253Z,50.38
2022-09-23T10:28:33.243Z,49.33
2022-09-23T10:29:33.232Z,48.20
2022-09-23T10:30:33.267Z,48.18
2022-09-23T10:31:33.211Z,47.16
2022-09-23T10:32:33.197Z,46.71
2022-09-23T10:34:33.171Z,46.31
2022-09-23T10:35:33.158Z,45.89
2022-09-23T10:36:33.161Z,47.68
2022-09-23T10:37:33.143Z,49.45
2022-09-23T10:38:33.263Z,50.18
2022-09-23T10:39:33.113Z,49.83
2022-09-23T10:40:33.150Z,48.58
2022-09-23T10:41:33.090Z,48.08
2022-09-23T10:42:33.081Z,49.65
2022-09-23T10:43:33.069Z,50.81
2022-09-23T10:45:33.040Z,49.81
2022-09-23T10:46:33.095Z,48.36
2022-09-23T10:47:33.018Z,47.11
2022-09-23T10:48:33.012Z,46.67
2022-09-23T10:49:32.993Z,45.20
2022-09-23T10:50:32.983Z,43.62
2022-09-23T10:51:32.969Z,41.97
2022-09-23T10:52:32.959Z,41.01
2022-09-23T10:53:32.945Z,39.48
2022-09-23T10:54:32.957Z,38.85
2022-09-23T10:56:32.912Z,37.63
2022-09-23T10:57:32.900Z,37.75
2022-09-23T10:58:32.889Z,39.09
2022-09-23T10:59:32.877Z,39.50
2022-09-23T11:00:32.867Z,38.97
2022-09-23T11:01:32.959Z,38.45
2022-09-23T11:02:32.843Z,38.26
2022-09-23T11:03:32.830Z,38.36
2022-09-23T11:04:32.895Z,37.73
2022-09-23T11:05:32.807Z,36.80
2022-09-23T11:07:36.837Z,35.66
2022-09-23T11:08:32.774Z,35.33
2022-09-23T11:09:32.762Z,34.72
2022-09-23T11:10:47.552Z,33.90
2022-09-23T11:11:34.740Z,33.58
2022-09-23T11:12:32.731Z,33.90
2022-09-23T11:13:32.719Z,33.58
2022-09-23T11:14:32.719Z,33.38
2022-09-23T11:15:32.696Z,33.90
2022-09-23T11:16:32.768Z,33.83
2022-09-23T11:18:32.670Z,38.50
2022-09-23T11:19:32.652Z,40.24
2022-09-23T11:20:32.637Z,40.67
2022-09-23T11:21:32.627Z,41.89
2022-09-23T11:22:32.619Z,41.71
2022-09-23T11:23:32.607Z,42.19
2022-09-23T11:24:32.593Z,41.55
2022-09-23T11:25:32.584Z,40.24
2022-09-23T11:26:33.406Z,41.45
2022-09-23T11:27:32.561Z,40.52
2022-09-23T11:29:32.536Z,41.17
2022-09-23T11:30:32.577Z,43.15
2022-09-23T11:31:32.518Z,44.50
2022-09-23T11:32:32.504Z,46.14
2022-09-23T11:33:32.490Z,45.10
2022-09-23T11:34:32.480Z,44.68
2022-09-23T11:35:32.467Z,44.80
2022-09-23T11:36:32.455Z,43.62
2022-09-23T11:37:32.441Z,41.94
2022-09-23T11:38:32.432Z,41.43
2022-09-23T11:40:32.516Z,40.61
2022-09-23T11:41:32.401Z,41.01
2022-09-23T11:42:32.419Z,40.20
2022-09-23T11:43:32.373Z,40.14
2022-09-23T11:44:32.366Z,42.37
2022-09-23T11:45:32.412Z,40.72
2022-09-23T11:46:32.338Z,39.98
2022-09-23T11:47:35.309Z,39.35
2022-09-23T11:48:32.315Z,38.32
2022-09-23T11:49:32.302Z,37.39
2022-09-23T11:51:32.278Z,36.35
2022-09-23T11:52:32.267Z,35.63
2022-09-23T11:53:32.256Z,34.90
2022-09-23T11:54:32.242Z,34.60
2022-09-23T11:55:32.236Z,34.79
2022-09-23T11:56:35.994Z,33.96
2022-09-23T11:57:43.840Z,33.16
2022-09-23T11:58:32.310Z,33.78
2022-09-23T11:59:39.565Z,33.91
2022-09-23T12:00:32.175Z,35.77
2022-09-23T12:02:32.260Z,34.72
2022-09-23T12:03:42.441Z,34.19
2022-09-23T12:04:32.234Z,34.44
2022-09-23T12:05:32.317Z,36.98
2022-09-23T12:06:32.106Z,36.78
2022-09-23T12:07:32.097Z,36.17
2022-09-23T12:08:32.087Z,36.37
2022-09-23T12:09:56.843Z,36.66
2022-09-23T12:10:32.063Z,36.05
2022-09-23T12:11:32.054Z,36.07
2022-09-23T12:13:32.031Z,39.60
2022-09-23T12:14:32.042Z,38.95
2022-09-23T12:15:32.014Z,40.22
2022-09-23T12:16:32.101Z,39.98
2022-09-23T12:17:31.986Z,39.56
2022-09-23T12:18:31.974Z,37.90
2022-09-23T12:19:31.964Z,36.76
2022-09-23T12:20:31.951Z,35.21
2022-09-23T12:21:50.286Z,34.06
2022-09-23T12:23:31.919Z,31.69
2022-09-23T12:24:31.907Z,31.17
2022-09-23T12:25:31.897Z,30.55
2022-09-23T12:26:31.883Z,29.74
2022-09-23T12:27:31.877Z,29.93
2022-09-23T12:28:31.863Z,29.12
2022-09-23T12:29:31.851Z,28.51
2022-09-23T12:30:31.906Z,28.10
2022-09-23T12:31:33.088Z,28.09
2022-09-23T12:32:31.814Z,27.99
2022-09-23T12:34:31.797Z,29.02
2022-09-23T12:35:31.780Z,30.49
2022-09-23T12:36:31.768Z,31.73
2022-09-23T12:37:31.759Z,33.90
2022-09-23T12:38:31.745Z,35.35
2022-09-23T12:39:31.736Z,36.04
2022-09-23T12:40:31.818Z,36.70
2022-09-23T12:41:31.713Z,37.39
2022-09-23T12:42:31.699Z,36.78
2022-09-23T12:43:31.701Z,37.12
2022-09-23T12:45:31.672Z,38.06
2022-09-23T12:46:31.678Z,36.42
2022-09-23T12:47:31.643Z,35.99
2022-09-23T12:48:31.630Z,34.85
2022-09-23T12:49:31.621Z,34.33
2022-09-23T12:50:31.609Z,33.39
2022-09-23T12:51:31.598Z,32.86
2022-09-23T12:52:31.613Z,33.17
2022-09-23T12:53:31.575Z,34.00
2022-09-23T12:54:31.563Z,33.36
2022-09-23T12:56:31.539Z,31.18
2022-09-23T12:57:31.533Z,29.98
2022-09-23T12:58:31.518Z,29.57
2022-09-23T12:59:31.507Z,29.36
2022-09-23T13:00:34.217Z,28.97
2022-09-23T13:01:31.612Z,29.58
2022-09-23T13:02:31.598Z,29.68
2022-09-23T13:03:31.463Z,29.78
2022-09-23T13:04:31.450Z,29.16
2022-09-23T13:05:31.440Z,29.16
2022-09-23T13:07:31.419Z,28.76
2022-09-23T13:08:31.406Z,28.79
2022-09-23T13:09:31.397Z,29.82
2022-09-23T13:10:31.386Z,31.57
2022-09-23T13:11:31.376Z,32.70
2022-09-23T13:12:31.360Z,32.88
2022-09-23T13:13:31.350Z,32.76
2022-09-23T13:14:31.337Z,32.57
2022-09-23T13:15:31.330Z,32.14
2022-09-23T13:16:31.436Z,31.02
2022-09-23T13:18:31.380Z,30.74
2022-09-23T13:19:35.349Z,30.20
2022-09-23T13:20:31.266Z,28.97
2022-09-23T13:21:31.257Z,28.66
2022-09-23T13:22:31.244Z,28.55
2022-09-23T13:23:31.243Z,28.58
2022-09-23T13:24:31.286Z,28.88
2022-09-23T13:25:31.208Z,29.39
2022-09-23T13:26:31.194Z,29.29
2022-09-23T13:27:31.195Z,29.19
2022-09-23T13:29:31.163Z,29.19
2022-09-23T13:30:31.148Z,29.50
2022-09-23T13:31:31.214Z,29.81
2022-09-23T13:32:31.123Z,30.23
2022-09-23T13:33:31.113Z,30.93
2022-09-23T13:34:31.122Z,31.65
2022-09-23T13:35:31.089Z,31.75
2022-09-23T13:36:31.077Z,31.13
2022-09-23T13:37:31.089Z,31.54
2022-09-23T13:38:31.051Z,31.56
2022-09-23T13:40:31.151Z,32.28
2022-09-23T13:41:31.016Z,33.00
2022-09-23T13:42:31.004Z,33.52
2022-09-23T13:43:30.992Z,33.93
2022-09-23T13:44:30.979Z,34.03
2022-09-23T13:45:31.096Z,33.81
2022-09-23T13:46:30.961Z,33.11
2022-09-23T13:47:30.944Z,33.42
2022-09-23T13:48:30.929Z,33.85
2022-09-23T13:49:30.918Z,33.32
2022-09-23T13:51:30.895Z,32.81
2022-09-23T13:52:30.879Z,33.32
2022-09-23T13:53:30.870Z,34.13
2022-09-23T13:54:30.864Z,34.36
2022-09-23T13:55:30.846Z,35.30
2022-09-23T13:56:30.832Z,36.85
2022-09-23T13:57:30.822Z,36.74
2022-09-23T13:58:30.809Z,35.91
2022-09-23T13:59:30.798Z,35.79
2022-09-23T14:00:30.783Z,35.08
2022-09-23T14:02:30.830Z,34.05
2022-09-23T14:03:35.849Z,33.75
2022-09-23T14:04:30.735Z,34.38
2022-09-23T14:05:30.723Z,34.54
2022-09-23T14:06:30.734Z,33.52
2022-09-23T14:07:30.701Z,32.57
2022-09-23T14:08:30.695Z,31.76
2022-09-23T14:09:30.674Z,31.68